createdAt,value
2022-09-15T00:01:20.754Z,97649.52
2022-09-15T00:03:49.249Z,97644.25
2022-09-15T00:06:17.729Z,97635.33
2022-09-15T00:08:45.635Z,97637.95
2022-09-15T00:11:21.031Z,97635.10
2022-09-15T00:13:49.789Z,97641.25
2022-09-15T00:16:19.643Z,97638.13
2022-09-15T00:18:47.890Z,97640.16
2022-09-15T00:21:19.289Z,97643.35
2022-09-15T00:23:48.338Z,97641.35
2022-09-15T00:26:20.328Z,97643.14
2022-09-15T00:28:48.692Z,97646.48
2022-09-15T00:31:20.713Z,97647.79
2022-09-15T00:33:50.797Z,97650.48
2022-09-15T00:36:19.799Z,97647.27
2022-09-15T00:38:48.469Z,97653.56
2022-09-15T00:41:19.339Z,97657.91
2022-09-15T00:43:53.964Z,97658.00
2022-09-15T00:46:34.325Z,97653.48
2022-09-15T00:49:14.752Z,97655.92
2022-09-15T00:51:45.561Z,97653.34
2022-09-15T00:54:19.030Z,97651.41
2022-09-15T00:56:50.256Z,97652.13
2022-09-15T00:59:23.273Z,97649.86
2022-09-15T01:01:58.863Z,97654.08
2022-09-15T01:04:27.394Z,97647.71
2022-09-15T01:07:02.348Z,97645.69
2022-09-15T01:09:50.111Z,97641.37
2022-09-15T01:12:18.515Z,97638.15
2022-09-15T01:14:46.335Z,97639.76
2022-09-15T01:17:35.262Z,97640.08
2022-09-15T01:20:34.672Z,97639.42
2022-09-15T01:23:44.930Z,97640.08
2022-09-15T01:26:27.930Z,97640.92
2022-09-15T01:29:17.741Z,97640.64
2022-09-15T01:32:27.442Z,97643.23
2022-09-15T01:35:25.823Z,97648.52
2022-09-15T01:38:21.143Z,97653.27
2022-09-15T01:41:05.421Z,97655.53
2022-09-15T01:43:36.944Z,97659.14
2022-09-15T01:46:06.247Z,97658.17
2022-09-15T01:48:36.015Z,97660.73
2022-09-15T01:51:06.470Z,97661.52
2022-09-15T01:53:35.439Z,97664.63
2022-09-15T01:56:07.621Z,97666.62
2022-09-15T01:58:38.381Z,97675.16
2022-09-15T02:01:18.663Z,97674.59
2022-09-15T02:03:55.654Z,97678.91
2022-09-15T02:06:39.887Z,97686.54
2022-09-15T02:09:12.883Z,97697.85
2022-09-15T02:11:52.408Z,97699.96
2022-09-15T02:14:31.356Z,97697.10
2022-09-15T02:16:59.175Z,97690.98
2022-09-15T02:19:41.856Z,97692.23
2022-09-15T02:22:23.566Z,97692.62
2022-09-15T02:25:06.033Z,97698.21
2022-09-15T02:27:44.442Z,97699.55
2022-09-15T02:30:16.085Z,97698.30
2022-09-15T02:32:49.882Z,97700.86
2022-09-15T02:35:18.292Z,97714.56
2022-09-15T02:37:46.863Z,97713.33
2022-09-15T02:40:14.923Z,97705.95
2022-09-15T02:42:53.962Z,97706.62
2022-09-15T02:45:23.243Z,97704.55
2022-09-15T02:47:51.300Z,97713.59
2022-09-15T02:50:20.630Z,97714.20
2022-09-15T02:52:48.747Z,97718.33
2022-09-15T02:55:16.612Z,97717.47
2022-09-15T02:57:44.426Z,97729.28
2022-09-15T03:00:14.683Z,97723.62
2022-09-15T03:02:46.164Z,97728.55
2022-09-15T03:05:15.610Z,97735.99
2022-09-15T03:07:43.469Z,97739.46
2022-09-15T03:10:12.916Z,97751.41
2022-09-15T03:12:44.056Z,97758.27
2022-09-15T03:15:13.854Z,97759.95
2022-09-15T03:17:43.240Z,97766.13
2022-09-15T03:20:13.135Z,97772.77
2022-09-15T03:22:41.517Z,97771.15
2022-09-15T03:25:10.760Z,97766.64
2022-09-15T03:27:38.728Z,97764.23
2022-09-15T03:30:07.788Z,97770.53
2022-09-15T03:32:36.651Z,97769.20
2022-09-15T03:35:07.043Z,97778.64
2022-09-15T03:37:34.980Z,97777.11
2022-09-15T03:40:04.373Z,97776.31
2022-09-15T03:42:32.474Z,97779.40
2022-09-15T03:45:00.311Z,97786.86
2022-09-15T03:47:28.153Z,97791.73
2022-09-15T03:49:55.954Z,97794.77
2022-09-15T03:52:24.018Z,97795.70
2022-09-15T03:54:51.896Z,97796.81
2022-09-15T03:57:19.728Z,97801.81
2022-09-15T03:59:48.054Z,97796.50
2022-09-15T04:02:16.101Z,97801.00
2022-09-15T04:04:44.475Z,97798.82
2022-09-15T04:07:12.278Z,97801.27
2022-09-15T04:09:40.311Z,97805.44
2022-09-15T04:12:08.173Z,97808.96
2022-09-15T04:14:35.941Z,97814.59
2022-09-15T04:17:03.891Z,97821.75
2022-09-15T04:19:32.085Z,97822.86
2022-09-15T04:21:59.901Z,97817.95
2022-09-15T04:24:27.942Z,97811.08
2022-09-15T04:26:55.759Z,97806.06
2022-09-15T04:29:23.582Z,97809.39
2022-09-15T04:31:53.146Z,97809.46
2022-09-15T04:34:21.121Z,97813.21
2022-09-15T04:36:49.040Z,97817.72
2022-09-15T04:39:16.797Z,97823.30
2022-09-15T04:41:44.606Z,97817.58
2022-09-15T04:44:12.725Z,97813.80
2022-09-15T04:46:40.701Z,97819.71
2022-09-15T04:49:08.570Z,97824.89
2022-09-15T04:51:36.358Z,97828.04
2022-09-15T04:54:04.406Z,97835.83
2022-09-15T04:56:32.238Z,97831.27
2022-09-15T04:59:03.886Z,97831.02
2022-09-15T05:01:35.503Z,97836.02
2022-09-15T05:04:04.470Z,97843.08
2022-09-15T05:06:35.152Z,97843.98
2022-09-15T05:09:10.019Z,97842.93
2022-09-15T05:11:38.776Z,97836.45
2022-09-15T05:14:07.011Z,97837.70
2022-09-15T05:16:35.902Z,97836.27
2022-09-15T05:19:04.787Z,97823.89
2022-09-15T05:21:33.948Z,97826.85
2022-09-15T05:24:02.082Z,97834.16
2022-09-15T05:26:30.208Z,97835.83
2022-09-15T05:28:58.093Z,97832.17
2022-09-15T05:31:31.605Z,97832.13
2022-09-15T05:34:04.475Z,97831.35
2022-09-15T05:36:33.251Z,97835.32
2022-09-15T05:39:02.000Z,97835.24
2022-09-15T05:41:31.229Z,97836.22
2022-09-15T05:43:59.454Z,97837.98
2022-09-15T05:46:29.544Z,97845.02
2022-09-15T05:48:58.781Z,97843.67
2022-09-15T05:51:27.475Z,97841.02
2022-09-15T05:53:56.010Z,97840.83
2022-09-15T05:56:24.564Z,97837.39
2022-09-15T05:58:52.603Z,97834.26
2022-09-15T06:01:24.395Z,97833.20
2022-09-15T06:03:53.702Z,97832.77
2022-09-15T06:06:23.314Z,97838.02
2022-09-15T06:09:15.992Z,97837.35
2022-09-15T06:11:43.837Z,97849.41
2022-09-15T06:14:13.500Z,97852.59
2022-09-15T06:16:41.345Z,97855.68
2022-09-15T06:19:09.229Z,97865.09
2022-09-15T06:21:36.973Z,97860.77
2022-09-15T06:24:07.312Z,97863.66
2022-09-15T06:26:35.965Z,97864.09
2022-09-15T06:29:05.502Z,97861.61
2022-09-15T06:31:35.911Z,97858.58
2022-09-15T06:34:05.895Z,97862.98
2022-09-15T06:36:33.913Z,97867.94
2022-09-15T06:39:01.722Z,97869.34
2022-09-15T06:41:47.032Z,97874.71
2022-09-15T06:44:21.907Z,97877.89
2022-09-15T06:46:50.143Z,97876.05
2022-09-15T06:49:19.729Z,97878.59
2022-09-15T06:51:48.632Z,97879.92
2022-09-15T06:54:17.019Z,97886.26
2022-09-15T06:56:47.301Z,97887.45
2022-09-15T06:59:16.977Z,97887.88
2022-09-15T07:01:55.512Z,97888.88
2022-09-15T07:04:23.451Z,97887.30
2022-09-15T07:06:51.289Z,97889.77
2022-09-15T07:09:19.908Z,97893.39
2022-09-15T07:11:47.847Z,97892.80
2022-09-15T07:14:17.162Z,97893.48
2022-09-15T07:16:47.725Z,97897.32
2022-09-15T07:19:16.581Z,97908.17
2022-09-15T07:21:44.652Z,97911.02
2022-09-15T07:24:13.199Z,97907.64
2022-09-15T07:26:42.243Z,97906.85
2022-09-15T07:29:10.092Z,97908.48
2022-09-15T07:31:39.486Z,97915.17
2022-09-15T07:34:10.590Z,97918.25
2022-09-15T07:36:39.077Z,97919.23
2022-09-15T07:39:08.078Z,97924.13
2022-09-15T07:41:36.864Z,97931.97
2022-09-15T07:44:08.315Z,97941.05
2022-09-15T07:46:36.518Z,97944.27
2022-09-15T07:49:06.867Z,97944.02
2022-09-15T07:51:35.939Z,97941.16
2022-09-15T07:54:03.917Z,97948.50
2022-09-15T07:56:32.460Z,97950.04
2022-09-15T07:59:00.542Z,97947.70
2022-09-15T08:01:28.474Z,97946.83
2022-09-15T08:04:02.043Z,97946.87
2022-09-15T08:06:32.641Z,97944.23
2022-09-15T08:09:02.224Z,97938.09
2022-09-15T08:11:31.072Z,97942.30
2022-09-15T08:14:03.361Z,97944.63
2022-09-15T08:16:31.777Z,97946.02
2022-09-15T08:19:00.235Z,97940.70
2022-09-15T08:21:33.776Z,97937.52
2022-09-15T08:24:02.204Z,97935.60
2022-09-15T08:26:31.162Z,97928.61
2022-09-15T08:28:59.510Z,97935.05
2022-09-15T08:31:27.362Z,97934.26
2022-09-15T08:33:56.692Z,97935.11
2022-09-15T08:36:28.164Z,97936.58
2022-09-15T08:38:56.951Z,97938.55
2022-09-15T08:41:29.640Z,97938.58
2022-09-15T08:44:36.201Z,97938.63
2022-09-15T08:47:18.978Z,97929.68
2022-09-15T08:50:05.600Z,97928.05
2022-09-15T08:52:48.698Z,97933.91
2022-09-15T08:55:53.980Z,97938.61
2022-09-15T08:58:29.209Z,97937.58
2022-09-15T09:01:41.294Z,97934.74
2022-09-15T09:04:32.314Z,97938.13
2022-09-15T09:07:52.969Z,97940.50
2022-09-15T09:11:10.173Z,97932.91
2022-09-15T09:13:46.901Z,97921.70
2022-09-15T09:16:52.982Z,97922.45
2022-09-15T09:20:16.348Z,97912.99
2022-09-15T09:22:48.797Z,97924.84
2022-09-15T09:25:27.370Z,97932.89
2022-09-15T09:28:01.964Z,97935.44
2022-09-15T09:30:33.376Z,97924.98
2022-09-15T09:33:26.501Z,97925.10
2022-09-15T09:35:55.636Z,97931.85
2022-09-15T09:38:36.801Z,97942.87
2022-09-15T09:41:26.941Z,97944.02
2022-09-15T09:43:56.508Z,97929.55
2022-09-15T09:46:24.796Z,97919.89
2022-09-15T09:48:57.496Z,97927.23
2022-09-15T09:52:04.827Z,97924.71
2022-09-15T09:54:35.630Z,97921.52
2022-09-15T09:57:31.493Z,97928.09
2022-09-15T09:59:59.778Z,97924.25
2022-09-15T10:02:28.871Z,97926.08
2022-09-15T10:05:22.644Z,97924.98
2022-09-15T10:07:50.889Z,97925.63
2022-09-15T10:10:24.447Z,97921.69
2022-09-15T10:12:56.863Z,97918.33
2022-09-15T10:15:27.883Z,97920.75
2022-09-15T10:17:56.762Z,97909.82
2022-09-15T10:20:51.309Z,97899.80
2022-09-15T10:23:31.368Z,97903.27
2022-09-15T10:26:22.159Z,97905.86
2022-09-15T10:29:17.185Z,97904.28
2022-09-15T10:31:49.327Z,97905.98
2022-09-15T10:34:32.181Z,97900.61
2022-09-15T10:37:37.247Z,97898.74
2022-09-15T10:40:20.890Z,97898.19
2022-09-15T10:43:00.522Z,97900.09
2022-09-15T10:45:48.482Z,97905.37
2022-09-15T10:48:26.511Z,97906.39
2022-09-15T10:51:20.080Z,97900.95
2022-09-15T10:54:22.458Z,97896.20
2022-09-15T10:56:59.294Z,97889.70
2022-09-15T10:59:44.420Z,97886.58
2022-09-15T11:02:33.830Z,97891.19
2022-09-15T11:05:26.869Z,97893.34
2022-09-15T11:08:34.201Z,97898.50
2022-09-15T11:11:34.866Z,97896.09
2022-09-15T11:14:52.108Z,97893.58
2022-09-15T11:17:34.299Z,97893.77
2022-09-15T11:20:47.153Z,97891.38
2022-09-15T11:24:00.144Z,97886.23
2022-09-15T11:26:53.441Z,97884.89
2022-09-15T11:29:34.992Z,97887.23
2022-09-15T11:32:19.575Z,97890.81
2022-09-15T11:35:00.031Z,97887.35
2022-09-15T11:37:56.893Z,97889.47
2022-09-15T11:40:37.803Z,97889.29
2022-09-15T11:43:36.093Z,97895.01
2022-09-15T11:46:13.622Z,97890.58
2022-09-15T11:48:54.528Z,97885.61
2022-09-15T11:51:28.597Z,97880.89
2022-09-15T11:54:08.237Z,97880.66
2022-09-15T11:56:42.772Z,97885.95
2022-09-15T11:59:50.358Z,97888.83
2022-09-15T12:02:31.082Z,97883.39
2022-09-15T12:05:11.814Z,97881.17
2022-09-15T12:08:12.989Z,97874.86
2022-09-15T12:10:45.855Z,97881.33
2022-09-15T12:13:26.488Z,97876.70
2022-09-15T12:15:55.617Z,97875.50
2022-09-15T12:19:02.183Z,97875.89
2022-09-15T12:21:48.738Z,97869.14
2022-09-15T12:24:34.935Z,97867.27
2022-09-15T12:27:14.527Z,97868.10
2022-09-15T12:29:52.809Z,97873.75
2022-09-15T12:32:35.230Z,97872.43
2022-09-15T12:35:07.922Z,97872.84
2022-09-15T12:38:13.569Z,97866.70
2022-09-15T12:40:44.277Z,97872.58
2022-09-15T12:43:26.128Z,97873.06
2022-09-15T12:46:01.925Z,97871.65
2022-09-15T12:48:36.748Z,97866.63
2022-09-15T12:51:23.445Z,97872.71
2022-09-15T12:53:59.505Z,97869.02
2022-09-15T12:56:29.789Z,97869.80
2022-09-15T12:59:06.762Z,97863.92
2022-09-15T13:01:47.844Z,97864.69
2022-09-15T13:04:53.433Z,97865.93
2022-09-15T13:07:34.788Z,97863.17
2022-09-15T13:10:29.392Z,97867.69
2022-09-15T13:13:18.750Z,97863.77
2022-09-15T13:15:50.931Z,97866.89
2022-09-15T13:18:26.051Z,97862.84
2022-09-15T13:21:00.606Z,97861.00
2022-09-15T13:23:34.279Z,97864.06
2022-09-15T13:26:11.987Z,97862.03
2022-09-15T13:28:40.261Z,97869.79
2022-09-15T13:31:34.675Z,97868.30
2022-09-15T13:38:15.138Z,97872.68
2022-09-15T13:41:19.894Z,97873.45
2022-09-15T13:44:25.488Z,97872.35
2022-09-15T13:47:31.729Z,97861.79
2022-09-15T13:50:31.266Z,97865.22
2022-09-15T13:53:06.835Z,97862.09
2022-09-15T13:55:38.817Z,97864.05
2022-09-15T14:01:07.833Z,97855.92
2022-09-15T14:03:57.300Z,97857.06
2022-09-15T14:06:31.315Z,97859.80
2022-09-15T14:09:06.621Z,97858.60
2022-09-15T14:11:37.907Z,97861.52
2022-09-15T14:14:29.442Z,97854.66
2022-09-15T14:16:57.517Z,97838.91
2022-09-15T14:19:50.300Z,97839.30
2022-09-15T14:22:29.547Z,97848.49
2022-09-15T14:25:06.332Z,97852.63
2022-09-15T14:27:38.401Z,97849.67
2022-09-15T14:30:16.535Z,97851.19
2022-09-15T14:32:47.007Z,97846.41
2022-09-15T14:35:23.562Z,97847.56
2022-09-15T14:37:58.270Z,97840.94
2022-09-15T14:40:36.455Z,97845.72
2022-09-15T14:43:25.984Z,97843.71
2022-09-15T14:46:09.452Z,97847.36
2022-09-15T14:48:37.312Z,97849.98
2022-09-15T14:51:14.379Z,97847.84
2022-09-15T14:53:44.766Z,97839.01
2022-09-15T14:56:21.529Z,97836.91
2022-09-15T14:58:55.595Z,97835.63
2022-09-15T15:01:32.656Z,97839.38
2022-09-15T15:04:31.379Z,97840.09
2022-09-15T15:07:20.106Z,97843.26
2022-09-15T15:10:06.267Z,97853.77
2022-09-15T15:12:43.616Z,97855.46
2022-09-15T15:15:19.021Z,97854.08
2022-09-15T15:17:49.981Z,97849.08
2022-09-15T15:20:25.667Z,97855.02
2022-09-15T15:23:44.483Z,97860.79
2022-09-15T15:26:36.209Z,97859.34
2022-09-15T15:29:46.299Z,97860.23
2022-09-15T15:32:42.990Z,97858.52
2022-09-15T15:35:17.926Z,97852.10
2022-09-15T15:37:49.744Z,97850.73
2022-09-15T15:40:23.357Z,97855.62
2022-09-15T15:42:59.382Z,97864.88
2022-09-15T15:45:34.099Z,97867.63
2022-09-15T15:48:04.429Z,97859.31
2022-09-15T15:50:32.804Z,97859.83
2022-09-15T15:53:02.670Z,97855.80
2022-09-15T15:55:45.630Z,97855.33
2022-09-15T15:58:15.443Z,97852.83
2022-09-15T16:00:49.008Z,97853.91
2022-09-15T16:03:18.927Z,97859.84
2022-09-15T16:05:57.128Z,97865.32
2022-09-15T16:08:41.813Z,97864.32
2022-09-15T16:11:15.446Z,97865.23
2022-09-15T16:13:47.106Z,97873.42
2022-09-15T16:16:24.401Z,97869.88
2022-09-15T16:18:52.675Z,97870.92
2022-09-15T16:21:36.903Z,97874.18
2022-09-15T16:24:05.995Z,97872.67
2022-09-15T16:26:36.008Z,97872.73
2022-09-15T16:29:04.480Z,97870.15
2022-09-15T16:31:33.666Z,97870.91
2022-09-15T16:34:02.628Z,97872.32
2022-09-15T16:36:33.214Z,97875.00
2022-09-15T16:39:04.696Z,97876.57
2022-09-15T16:41:38.990Z,97877.83
2022-09-15T16:44:17.754Z,97882.08
2022-09-15T16:46:49.219Z,97885.76
2022-09-15T16:49:17.711Z,97881.53
2022-09-15T16:51:47.121Z,97887.92
2022-09-15T16:54:18.242Z,97883.45
2022-09-15T16:56:46.867Z,97887.30
2022-09-15T16:59:14.808Z,97896.71
2022-09-15T17:01:43.587Z,97896.63
2022-09-15T17:04:15.931Z,97888.11
2022-09-15T17:06:44.062Z,97891.11
2022-09-15T17:09:15.585Z,97892.09
2022-09-15T17:11:43.585Z,97891.25
2022-09-15T17:14:18.867Z,97889.23
2022-09-15T17:16:47.671Z,97887.52
2022-09-15T17:19:16.114Z,97892.40
2022-09-15T17:21:44.053Z,97894.41
2022-09-15T17:24:13.451Z,97890.01
2022-09-15T17:26:42.310Z,97895.83
2022-09-15T17:29:10.502Z,97895.38
2022-09-15T17:31:39.498Z,97892.12
2022-09-15T17:34:14.575Z,97897.71
2022-09-15T17:36:42.980Z,97898.19
2022-09-15T17:39:11.866Z,97900.90
2022-09-15T17:41:40.001Z,97896.27
2022-09-15T17:44:11.724Z,97900.53
2022-09-15T17:46:46.895Z,97903.84
2022-09-15T17:49:17.876Z,97901.16
2022-09-15T17:51:46.168Z,97896.23
2022-09-15T17:54:14.430Z,97892.38
2022-09-15T17:56:45.439Z,97889.95
2022-09-15T17:59:16.216Z,97893.23
2022-09-15T18:01:47.430Z,97901.58
2022-09-15T18:04:18.447Z,97899.94
2022-09-15T18:06:46.868Z,97911.83
2022-09-15T18:09:16.204Z,97916.13
2022-09-15T18:11:47.297Z,97922.84
2022-09-15T18:14:15.601Z,97928.07
2022-09-15T18:16:43.597Z,97931.05
2022-09-15T18:19:14.612Z,97934.24
2022-09-15T18:21:43.442Z,97933.71
2022-09-15T18:24:15.205Z,97935.11
2022-09-15T18:26:43.668Z,97937.01
2022-09-15T18:29:12.758Z,97936.69
2022-09-15T18:31:40.844Z,97936.23
2022-09-15T18:34:10.480Z,97941.88
2022-09-15T18:36:40.849Z,97936.54
2022-09-15T18:39:12.570Z,97941.13
2022-09-15T18:41:40.839Z,97943.19
2022-09-15T18:44:09.269Z,97948.23
2022-09-15T18:46:39.527Z,97951.27
2022-09-15T18:49:09.684Z,97953.44
2022-09-15T18:51:51.522Z,97955.88
2022-09-15T18:54:20.285Z,97961.13
2022-09-15T18:56:52.222Z,97961.09
2022-09-15T18:59:23.557Z,97963.09
2022-09-15T19:01:52.700Z,97965.15
2022-09-15T19:04:21.038Z,97964.09
2022-09-15T19:06:49.322Z,97966.48
2022-09-15T19:09:18.688Z,97969.16
2022-09-15T19:11:47.992Z,97970.77
2022-09-15T19:14:16.147Z,97972.77
2022-09-15T19:16:57.237Z,97976.47
2022-09-15T19:19:25.990Z,97976.00
2022-09-15T19:21:53.924Z,97980.71
2022-09-15T19:24:22.574Z,97978.29
2022-09-15T19:26:50.729Z,97982.86
2022-09-15T19:29:18.952Z,97982.00
2022-09-15T19:31:47.387Z,97980.77
2022-09-15T19:34:18.582Z,97982.33
2022-09-15T19:36:49.524Z,97981.77
2022-09-15T19:39:17.802Z,97982.70
2022-09-15T19:41:45.731Z,97981.91
2022-09-15T19:44:16.585Z,97977.77
2022-09-15T19:46:45.067Z,97978.95
2022-09-15T19:49:13.144Z,97977.23
2022-09-15T19:51:41.643Z,97981.65
2022-09-15T19:54:09.954Z,97982.83
2022-09-15T19:56:39.391Z,97983.46
2022-09-15T19:59:07.238Z,97987.55
2022-09-15T20:01:35.661Z,97989.05
2022-09-15T20:04:06.495Z,97988.05
2022-09-15T20:06:36.730Z,97990.34
2022-09-15T20:09:06.946Z,97986.67
2022-09-15T20:11:40.067Z,97992.73
2022-09-15T20:14:12.172Z,97995.95
2022-09-15T20:16:41.375Z,97998.23
2022-09-15T20:19:10.289Z,97996.27
2022-09-15T20:21:56.622Z,98000.34
2022-09-15T20:24:26.250Z,98000.98
2022-09-15T20:26:55.176Z,98004.52
2022-09-15T20:29:24.817Z,98006.73
2022-09-15T20:31:59.015Z,98006.73
2022-09-15T20:34:27.604Z,98010.02
2022-09-15T20:36:55.993Z,98005.81
2022-09-15T20:39:25.078Z,98003.77
2022-09-15T20:41:58.985Z,98003.15
2022-09-15T20:44:27.875Z,97998.76
2022-09-15T20:46:56.871Z,98000.09
2022-09-15T20:49:25.873Z,97996.02
2022-09-15T20:51:57.634Z,97996.56
2022-09-15T20:54:25.819Z,98000.44
2022-09-15T20:56:57.763Z,97999.98
2022-09-15T20:59:31.614Z,97998.89
2022-09-15T21:02:00.014Z,97995.14
2022-09-15T21:04:28.509Z,97996.78
2022-09-15T21:06:57.682Z,97999.38
2022-09-15T21:09:26.063Z,98000.70
2022-09-15T21:11:55.026Z,98000.71
2022-09-15T21:14:25.842Z,98001.13
2022-09-15T21:16:54.398Z,98003.31
2022-09-15T21:19:22.787Z,98008.10
2022-09-15T21:21:51.470Z,98009.64
2022-09-15T21:24:19.572Z,98011.13
2022-09-15T21:27:07.019Z,98010.73
2022-09-15T21:29:35.920Z,98014.27
2022-09-15T21:32:04.159Z,98016.70
2022-09-15T21:34:32.408Z,98010.98
2022-09-15T21:37:03.377Z,98010.90
2022-09-15T21:39:31.524Z,98013.41
2022-09-15T21:41:59.752Z,98016.61
2022-09-15T21:44:33.180Z,98015.36
2022-09-15T21:47:01.364Z,98016.46
2022-09-15T21:49:30.117Z,98017.17
2022-09-15T21:51:58.898Z,98023.27
2022-09-15T21:54:32.423Z,98026.71
2022-09-15T21:57:00.787Z,98027.89
2022-09-15T21:59:29.007Z,98030.71
2022-09-15T22:01:59.704Z,98032.91
2022-09-15T22:04:30.794Z,98031.48
2022-09-15T22:07:04.582Z,98035.33
2022-09-15T22:09:34.026Z,98034.07
2022-09-15T22:12:02.805Z,98042.60
2022-09-15T22:14:33.598Z,98048.40
2022-09-15T22:17:04.599Z,98049.73
2022-09-15T22:19:32.627Z,98047.69
2022-09-15T22:22:01.495Z,98050.98
2022-09-15T22:24:32.670Z,98055.05
2022-09-15T22:27:05.801Z,98056.92
2022-09-15T22:29:34.055Z,98062.48
2022-09-15T22:32:03.222Z,98062.33
2022-09-15T22:34:33.941Z,98066.72
2022-09-15T22:37:03.041Z,98064.14
2022-09-15T22:39:57.464Z,98064.48
2022-09-15T22:42:20.703Z,98064.78
2022-09-15T22:44:49.328Z,98065.41
2022-09-15T22:47:42.489Z,98063.92
2022-09-15T22:50:11.907Z,98062.21
2022-09-15T22:52:40.132Z,98066.44
2022-09-15T22:55:09.372Z,98069.11
2022-09-15T22:57:40.017Z,98069.18
2022-09-15T23:00:10.339Z,98069.10
2022-09-15T23:02:39.189Z,98066.60
2022-09-15T23:05:07.521Z,98063.63
2022-09-15T23:07:38.800Z,98058.70
2022-09-15T23:10:12.048Z,98055.95
2022-09-15T23:12:40.262Z,98051.17
2022-09-15T23:15:10.990Z,98051.48
2022-09-15T23:17:41.832Z,98050.09
2022-09-15T23:20:11.775Z,98050.00
2022-09-15T23:22:39.969Z,98046.16
2022-09-15T23:25:09.194Z,98048.44
2022-09-15T23:27:40.486Z,98048.20
2022-09-15T23:30:10.815Z,98050.08
2022-09-15T23:32:39.219Z,98053.38
2022-09-15T23:35:09.815Z,98053.38
2022-09-15T23:37:38.066Z,98060.03
2022-09-15T23:40:07.517Z,98059.64
2022-09-15T23:42:35.740Z,98062.84
2022-09-15T23:45:04.636Z,98070.75
2022-09-15T23:47:35.059Z,98073.17
2022-09-15T23:50:05.852Z,98068.48
2022-09-15T23:52:34.105Z,98063.39
2022-09-15T23:55:02.584Z,98067.31
2022-09-15T23:57:55.191Z,98066.14
